Time;durP1;ratioP1;P1;durP2;ratioP2;P2;SDS_P1;SDS_P2;PMS_P1;PMS_P2;Temp;Humidity;BMP_temperature;BMP_pressure;BME280_temperature;BME280_humidity;BME280_pressure;Samples;Min_cycle;Max_cycle;Signal;HPM_P1;HPM_P2
2023/07/19 05:28:39;;;;;;;;;2.25;2.25;;;;;25.35;41.53;101268.28;5155157;27;45339;-57
2023/07/19 05:31:05;;;;;;;;;1.25;1.25;;;;;25.63;40.04;101270.88;5137826;27;48706;-59
2023/07/19 05:33:32;;;;;;;;;3.00;2.00;;;;;25.79;39.94;101274.81;5137478;27;45349;-58
2023/07/19 05:35:58;;;;;;;;;1.50;1.50;;;;;25.89;40.00;101270.09;5137272;27;45221;-56
2023/07/19 05:38:23;;;;;;;;;1.00;1.00;;;;;25.93;39.79;101272.41;5137229;27;45189;-57
2023/07/19 05:40:48;;;;;;;;;2.50;1.50;;;;;25.95;39.28;101272.22;5137340;27;45391;-57
2023/07/19 05:43:15;;;;;;;;;1.75;1.00;;;;;26.08;39.18;101277.34;5137620;27;45160;-58
2023/07/19 05:45:40;;;;;;;;;1.75;1.75;;;;;26.05;39.02;101270.25;5137448;27;45286;-57
2023/07/19 05:48:06;;;;;;;;;2.00;2.00;;;;;26.22;38.72;101268.53;5136782;27;45477;-58
2023/07/19 05:50:31;;;;;;;;;0.50;0.50;;;;;26.35;38.13;101275.38;5137188;27;46576;-58
2023/07/19 05:52:57;;;;;;;;;3.75;2.00;;;;;26.40;38.10;101274.03;5137163;27;45242;-58
2023/07/19 05:55:22;;;;;;;;;2.00;2.00;;;;;26.50;38.02;101283.91;5137247;27;45356;-57
2023/07/19 05:57:47;;;;;;;;;2.00;2.00;;;;;26.49;37.96;101287.69;5136835;27;53130;-56
2023/07/19 06:00:24;;;;;;;;;2.00;2.00;;;;;26.58;38.09;101294.09;5137355;27;45338;-57
2023/07/19 06:02:53;;;;;;;;;2.00;2.00;;;;;26.81;37.75;101295.28;5137270;27;45312;-57
2023/07/19 06:05:19;;;;;;;;;1.50;1.50;;;;;26.82;37.98;101291.53;5136894;27;45374;-57
2023/07/19 06:07:45;;;;;;;;;0.50;0.50;;;;;26.96;38.27;101301.97;5137032;27;45358;-57
2023/07/19 06:10:11;;;;;;;;;1.75;1.75;;;;;26.99;37.99;101296.13;5137193;27;45393;-57
2023/07/19 06:12:36;;;;;;;;;2.25;1.00;;;;;27.11;38.29;101292.09;5137194;27;45309;-57
2023/07/19 06:15:01;;;;;;;;;1.25;0.75;;;;;27.24;38.35;101305.38;5136791;27;46695;-58
2023/07/19 06:17:27;;;;;;;;;1.00;1.00;;;;;27.41;38.52;101309.06;5136426;27;46223;-55
2023/07/19 06:19:52;;;;;;;;;0.75;0.75;;;;;27.50;38.53;101311.69;5136913;27;45336;-57
2023/07/19 06:22:18;;;;;;;;;2.25;0.50;;;;;27.64;38.37;101306.63;5134309;27;45263;-57
2023/07/19 06:24:43;;;;;;;;;1.25;1.00;;;;;27.80;37.61;101299.25;5136811;27;45565;-58
2023/07/19 06:27:09;;;;;;;;;3.00;1.25;;;;;27.79;38.44;101303.03;5135078;27;45365;-58
2023/07/19 06:29:34;;;;;;;;;0.50;0.50;;;;;27.64;38.98;101299.22;5122757;27;60896;-57
2023/07/19 06:31:59;;;;;;;;;0.00;0.00;;;;;27.81;38.59;101292.72;5122925;27;45246;-57
2023/07/19 06:34:24;;;;;;;;;2.25;1.00;;;;;27.80;39.16;101299.25;5122354;27;54560;-57
2023/07/19 06:36:50;;;;;;;;;0.50;0.50;;;;;27.82;38.68;101288.91;5121533;27;45432;-58
2023/07/19 06:39:15;;;;;;;;;0.75;0.75;;;;;27.86;38.97;101289.44;5122817;27;45227;-57
2023/07/19 06:41:40;;;;;;;;;1.00;1.00;;;;;27.90;39.00;101289.97;5121552;27;45260;-57
2023/07/19 06:44:06;;;;;;;;;0.75;0.75;;;;;27.89;38.55;101288.25;5123029;27;45268;-58
2023/07/19 06:46:31;;;;;;;;;0.50;0.50;;;;;27.90;39.10;101285.34;5122629;27;45236;-57
2023/07/19 06:48:56;;;;;;;;;1.00;1.00;;;;;27.90;39.08;101266.03;5122091;27;45258;-66
2023/07/19 06:51:22;;;;;;;;;1.25;0.75;;;;;28.24;38.58;101294.34;5121437;27;45243;-67
2023/07/19 06:53:47;;;;;;;;;0.00;0.00;;;;;28.32;38.27;101298.16;5122563;27;45207;-67
2023/07/19 06:56:12;;;;;;;;;0.00;0.00;;;;;28.17;38.63;101296.06;5122465;27;45897;-67
2023/07/19 06:58:38;;;;;;;;;0.00;0.00;;;;;28.27;38.66;101295.91;5122715;27;45253;-67
2023/07/19 07:01:03;;;;;;;;;1.50;0.50;;;;;28.33;38.36;101288.84;5121365;27;45366;-67
2023/07/19 07:03:29;;;;;;;;;0.75;0.00;;;;;28.55;37.88;101299.19;5122656;27;45216;-67
2023/07/19 07:05:54;;;;;;;;;0.50;0.50;;;;;28.37;38.05;101290.22;5122382;27;45333;-66
2023/07/19 07:08:20;;;;;;;;;1.75;0.75;;;;;28.43;38.66;101287.63;5138654;27;45254;-66
2023/07/19 07:10:45;;;;;;;;;0.25;0.25;;;;;28.50;38.60;101290.53;5122534;27;45370;-67
2023/07/19 07:13:10;;;;;;;;;0.50;0.50;;;;;28.51;38.40;101289.50;5122423;27;45492;-66
2023/07/19 07:15:36;;;;;;;;;0.00;0.00;;;;;28.73;37.52;101297.09;5122186;27;45316;-67
2023/07/19 07:18:01;;;;;;;;;1.00;1.00;;;;;28.56;38.59;101296.25;5122108;27;45310;-68
2023/07/19 07:20:27;;;;;;;;;0.00;0.00;;;;;28.54;38.40;101300.22;5122521;27;45436;-67
2023/07/19 07:22:53;;;;;;;;;0.75;0.00;;;;;28.52;38.48;101305.03;5122210;27;45519;-66
2023/07/19 07:25:19;;;;;;;;;1.00;0.25;;;;;28.53;38.60;101306.75;5120784;27;47967;-66
2023/07/19 07:27:44;;;;;;;;;2.00;0.00;;;;;28.61;37.73;101310.38;5118173;27;45470;-65
2023/07/19 07:30:10;;;;;;;;;0.50;0.50;;;;;28.44;38.53;101294.88;5122461;27;45426;-65
2023/07/19 07:32:35;;;;;;;;;0.75;0.75;;;;;28.47;38.27;101297.28;5121383;27;45246;-66
2023/07/19 07:35:02;;;;;;;;;0.00;0.00;;;;;28.55;38.45;101301.94;5122278;27;45220;-66
2023/07/19 07:37:27;;;;;;;;;0.25;0.25;;;;;28.64;37.99;101308.31;5122104;27;45315;-65
2023/07/19 07:39:53;;;;;;;;;0.75;0.75;;;;;28.64;38.47;101311.06;5121282;27;45231;-65
2023/07/19 07:42:19;;;;;;;;;1.00;1.00;;;;;28.66;37.53;101293.31;5120503;27;46499;-66
2023/07/19 07:44:45;;;;;;;;;0.75;0.75;;;;;28.79;37.96;101301.94;5122024;27;46036;-65
2023/07/19 07:47:10;;;;;;;;;1.00;1.00;;;;;28.92;37.73;101301.41;5121618;27;45415;-65
2023/07/19 07:49:36;;;;;;;;;2.50;1.00;;;;;28.97;37.70;101291.56;5122293;27;45247;-65
2023/07/19 07:52:02;;;;;;;;;1.00;1.00;;;;;28.97;37.04;101299.81;5121811;27;45393;-66
2023/07/19 07:54:28;;;;;;;;;0.75;0.75;;;;;29.21;37.34;101303.53;5122134;27;46339;-65
2023/07/19 07:56:53;;;;;;;;;1.00;1.00;;;;;29.17;36.95;101314.09;5121764;27;45263;-65
2023/07/19 07:59:18;;;;;;;;;0.75;0.75;;;;;29.22;36.30;101300.63;5122352;27;45298;-66
2023/07/19 08:01:43;;;;;;;;;0.75;0.75;;;;;29.23;36.35;101298.72;5121490;27;48023;-66
2023/07/19 08:04:10;;;;;;;;;1.50;1.50;;;;;29.27;35.83;101302.81;5121406;27;47748;-66
2023/07/19 08:06:36;;;;;;;;;1.50;1.00;;;;;29.21;35.91;101304.41;5121174;27;45311;-67
2023/07/19 08:09:02;;;;;;;;;0.50;0.50;;;;;29.26;35.97;101301.13;5121875;27;45297;-66
2023/07/19 08:11:27;;;;;;;;;2.50;1.00;;;;;29.33;35.59;101307.66;5120256;27;45279;-66
2023/07/19 08:13:53;;;;;;;;;0.25;0.25;;;;;28.90;34.98;101245.50;5121593;27;46370;-65
2023/07/19 08:16:18;;;;;;;;;0.75;0.75;;;;;29.10;35.47;101302.03;5121552;27;45377;-65
2023/07/19 08:18:44;;;;;;;;;2.00;0.00;;;;;29.10;35.54;101293.75;5121309;27;45576;-66
2023/07/19 08:21:09;;;;;;;;;2.00;2.00;;;;;29.06;35.55;101303.44;5121311;27;45501;-66
2023/07/19 08:23:35;;;;;;;;;2.50;1.00;;;;;29.17;35.40;101297.53;5121143;27;46023;-68
2023/07/19 08:26:00;;;;;;;;;0.50;0.50;;;;;29.07;34.95;101301.53;5117040;27;45265;-66
2023/07/19 08:28:25;;;;;;;;;1.00;0.00;;;;;29.13;35.11;101304.44;5120200;27;45494;-66
2023/07/19 08:30:54;;;;;;;;;0.50;0.50;;;;;29.18;35.33;101295.59;5121344;27;45507;-66
2023/07/19 08:33:24;;;;;;;;;1.50;1.50;;;;;29.31;34.90;101298.69;5119425;27;46058;-66
2023/07/19 08:35:50;;;;;;;;;1.50;1.50;;;;;29.34;35.03;101290.91;5121042;27;45284;-65
2023/07/19 08:38:16;;;;;;;;;0.75;0.75;;;;;29.34;35.19;101298.34;5121401;27;45296;-67
2023/07/19 08:40:46;;;;;;;;;3.00;1.00;;;;;29.43;34.60;101290.91;5120874;27;45379;-66
2023/07/19 08:43:13;;;;;;;;;2.50;2.00;;;;;29.27;34.29;101303.69;5121081;27;45214;-66
2023/07/19 08:45:39;;;;;;;;;3.00;2.00;;;;;29.24;34.84;101303.19;5120800;27;45272;-67
2023/07/19 08:48:06;;;;;;;;;2.00;2.00;;;;;29.21;34.18;101296.13;5120800;27;45344;-68
2023/07/19 08:50:32;;;;;;;;;2.00;2.00;;;;;29.38;34.46;101298.84;5119298;27;45382;-68
2023/07/19 08:53:02;;;;;;;;;0.75;0.75;;;;;29.51;34.62;101299.16;5120570;27;45961;-67
2023/07/19 08:55:29;;;;;;;;;1.50;1.50;;;;;29.57;34.12;101313.09;5120713;27;45211;-66
2023/07/19 08:57:54;;;;;;;;;2.00;0.50;;;;;29.42;33.93;101298.34;5120911;27;45369;-67
2023/07/19 09:00:20;;;;;;;;;2.25;2.25;;;;;29.33;34.05;101286.44;5120202;27;45237;-68
2023/07/19 09:02:45;;;;;;;;;1.25;1.25;;;;;29.35;33.91;101294.50;5120665;27;45229;-67
2023/07/19 09:05:12;;;;;;;;;1.50;1.50;;;;;29.48;34.10;101286.56;5119321;27;45376;-68
2023/07/19 09:07:38;;;;;;;;;1.00;1.00;;;;;29.40;33.54;101289.34;5119604;27;45422;-67
2023/07/19 09:10:09;;;;;;;;;4.25;2.00;;;;;29.33;33.57;101286.44;5119165;27;45484;-68
2023/07/19 09:12:39;;;;;;;;;2.00;2.00;;;;;29.53;32.90;101283.22;5120624;27;45573;-67
2023/07/19 09:15:09;;;;;;;;;1.75;1.75;;;;;29.62;33.42;101291.31;5120456;27;45252;-68
2023/07/19 09:17:46;;;;;;;;;2.00;2.00;;;;;29.55;32.80;101292.22;5120408;27;45331;-69
2023/07/19 09:20:12;;;;;;;;;0.25;0.25;;;;;29.48;32.75;101293.97;5120152;27;45490;-67
2023/07/19 09:22:38;;;;;;;;;2.50;1.25;;;;;29.43;32.83;101280.72;5120570;27;46295;-68
2023/07/19 09:25:05;;;;;;;;;0.25;0.25;;;;;29.56;32.23;101310.50;5120158;27;45463;-69
2023/07/19 09:27:32;;;;;;;;;1.50;1.50;;;;;29.38;33.02;101293.34;5116357;27;45331;-69
2023/07/19 09:29:57;;;;;;;;;2.00;1.00;;;;;29.34;32.80;101290.91;5120329;27;45463;-67
2023/07/19 09:32:23;;;;;;;;;0.75;0.75;;;;;29.37;32.38;101286.94;5120093;27;46360;-68
2023/07/19 09:34:52;;;;;;;;;2.00;2.00;;;;;29.41;32.29;101292.97;5120294;27;45435;-68
2023/07/19 09:37:20;;;;;;;;;1.00;1.00;;;;;29.33;31.94;101272.63;5120741;27;45407;-67
2023/07/19 09:39:46;;;;;;;;;1.50;1.50;;;;;29.55;32.41;101289.44;5120137;27;45468;-68
2023/07/19 09:42:13;;;;;;;;;1.75;1.50;;;;;29.64;32.40;101280.06;5120248;27;46250;-68
2023/07/19 09:44:39;;;;;;;;;2.25;2.25;;;;;29.75;32.15;101289.88;5120182;27;45195;-69
2023/07/19 09:47:08;;;;;;;;;1.00;1.00;;;;;29.69;32.23;101289.53;5120184;27;45228;-71
2023/07/19 09:49:34;;;;;;;;;2.25;2.00;;;;;29.66;32.29;101289.91;5120150;27;45558;-68
2023/07/19 09:52:02;;;;;;;;;1.75;1.75;;;;;29.74;32.05;101297.28;5120339;27;46291;-69
2023/07/19 09:54:31;;;;;;;;;2.00;2.00;;;;;29.80;32.65;101295.69;5120410;27;45289;-69
2023/07/19 09:56:58;;;;;;;;;2.50;2.50;;;;;29.76;32.71;101294.34;5119039;27;45427;-69
2023/07/19 09:59:35;;;;;;;;;3.75;1.75;;;;;29.80;32.19;101301.22;5120392;27;45474;-68
2023/07/19 10:02:02;;;;;;;;;1.75;1.75;;;;;29.80;32.10;101293.78;5135743;27;46329;-68
2023/07/19 10:04:37;;;;;;;;;2.50;1.75;;;;;29.84;32.28;101299.84;5122576;27;45230;-70
2023/07/19 10:07:18;;;;;;;;;3.50;3.50;;;;;29.96;32.44;101274.38;5122351;27;45274;-69
2023/07/19 10:09:45;;;;;;;;;2.50;2.50;;;;;29.94;31.26;101297.75;5139878;27;45919;-68
2023/07/19 10:12:17;;;;;;;;;2.00;2.00;;;;;30.15;31.93;101289.63;5122312;27;48555;-69
2023/07/19 10:14:56;;;;;;;;;2.00;2.00;;;;;30.10;31.21;101286.56;5123408;27;45256;-68
2023/07/19 10:17:22;;;;;;;;;3.25;1.50;;;;;30.15;31.47;101286.84;5123178;27;45283;-68
2023/07/19 10:20:03;;;;;;;;;2.50;2.50;;;;;30.19;32.08;101298.41;5123050;27;45174;-69
2023/07/19 10:22:53;;;;;;;;;1.00;1.00;;;;;30.22;31.70;101286.97;5123106;27;45333;-69
2023/07/19 10:25:24;;;;;;;;;3.00;2.00;;;;;30.25;31.13;101297.66;5122987;27;45225;-69
2023/07/19 10:28:09;;;;;;;;;2.00;2.00;;;;;30.25;31.18;101294.91;5117495;27;45333;-68
2023/07/19 10:30:46;;;;;;;;;3.75;2.25;;;;;30.11;31.49;101296.59;5123140;27;45305;-70
2023/07/19 10:33:22;;;;;;;;;3.00;2.50;;;;;29.93;31.59;101302.38;5121955;27;45265;-68
2023/07/19 10:35:50;;;;;;;;;5.50;4.00;;;;;30.00;31.45;101311.69;5123164;27;45408;-70
2023/07/19 10:38:27;;;;;;;;;3.25;3.25;;;;;29.99;31.45;101301.66;5123234;27;45253;-67
2023/07/19 10:40:58;;;;;;;;;3.00;3.00;;;;;30.15;31.43;101302.59;5122981;27;45324;-69
2023/07/19 10:43:25;;;;;;;;;1.00;1.00;;;;;30.18;30.48;101294.78;5123067;27;46077;-69
2023/07/19 10:45:52;;;;;;;;;1.75;1.75;;;;;30.05;30.79;101289.00;5122891;27;45314;-69
2023/07/19 10:48:19;;;;;;;;;1.75;1.75;;;;;30.16;30.70;101304.31;5121421;27;45367;-68
2023/07/19 10:50:46;;;;;;;;;2.25;2.25;;;;;30.27;30.54;101290.91;5122840;27;45364;-68
2023/07/19 10:53:11;;;;;;;;;4.75;2.75;;;;;30.42;30.30;101296.50;5122675;27;45987;-69
2023/07/19 10:55:36;;;;;;;;;2.75;2.75;;;;;30.36;30.30;101294.47;5123008;27;45248;-69
2023/07/19 10:58:02;;;;;;;;;1.75;1.75;;;;;30.29;30.10;101286.03;5122900;27;45238;-69
2023/07/19 11:00:27;;;;;;;;;1.25;0.50;;;;;30.31;30.26;101295.00;5122761;27;45228;-68
2023/07/19 11:02:54;;;;;;;;;3.75;3.75;;;;;30.38;30.04;101281.28;5122286;27;46194;-69
2023/07/19 11:05:19;;;;;;;;;3.00;3.00;;;;;30.53;29.75;101289.69;5122864;27;45176;-69
2023/07/19 11:07:48;;;;;;;;;1.75;1.75;;;;;30.49;29.21;101300.22;5122877;27;45143;-68
2023/07/19 11:10:13;;;;;;;;;1.75;1.75;;;;;30.47;29.36;101288.47;5121363;27;47092;-69
2023/07/19 11:12:39;;;;;;;;;1.50;1.50;;;;;30.60;29.69;101296.19;5122664;27;45346;-68
2023/07/19 11:15:07;;;;;;;;;3.50;2.00;;;;;30.68;29.81;101304.41;5122383;27;45344;-69
2023/07/19 11:17:35;;;;;;;;;2.00;2.00;;;;;30.81;29.24;101296.31;5122141;27;45252;-69
2023/07/19 11:20:00;;;;;;;;;2.75;2.75;;;;;30.80;29.30;101297.34;5122062;27;45550;-69
2023/07/19 11:22:27;;;;;;;;;4.25;1.50;;;;;30.98;29.58;101289.56;5122510;27;45206;-70
2023/07/19 11:24:55;;;;;;;;;2.00;2.00;;;;;30.88;29.16;101305.56;5122100;27;45443;-70
2023/07/19 11:27:34;;;;;;;;;1.50;1.50;;;;;30.88;29.54;101285.38;5118203;27;45275;-68
2023/07/19 11:29:59;;;;;;;;;2.00;2.00;;;;;30.99;28.90;101296.81;5121078;27;47173;-68
2023/07/19 11:32:25;;;;;;;;;1.75;1.75;;;;;31.04;29.23;101293.50;5121697;27;45983;-67
2023/07/19 11:34:52;;;;;;;;;2.50;1.75;;;;;31.03;29.00;101292.63;5122056;27;45241;-68
2023/07/19 11:37:24;;;;;;;;;2.75;2.75;;;;;31.18;28.86;101306.50;5122551;27;45344;-68
2023/07/19 11:39:51;;;;;;;;;1.50;1.50;;;;;31.10;28.78;101301.06;5122031;27;45544;-68
2023/07/19 11:42:51;;;;;;;;;2.25;2.25;;;;;31.17;28.69;101302.88;5122020;27;45528;-69
2023/07/19 11:45:19;;;;;;;;;2.25;2.25;;;;;31.12;29.16;101288.75;5121989;27;45238;-68
2023/07/19 11:47:47;;;;;;;;;2.50;1.50;;;;;31.16;28.80;101290.06;5121665;27;45233;-68
2023/07/19 11:50:12;;;;;;;;;2.75;2.75;;;;;31.25;29.11;101282.53;5121971;27;45483;-69
2023/07/19 11:52:47;;;;;;;;;2.00;2.00;;;;;31.23;28.78;101289.28;5121637;27;47100;-69
2023/07/19 11:55:16;;;;;;;;;2.25;1.75;;;;;31.13;28.82;101282.16;5121789;27;45326;-69
2023/07/19 11:57:43;;;;;;;;;1.50;1.50;;;;;31.09;28.30;101277.19;5120236;27;45264;-68
2023/07/19 12:00:10;;;;;;;;;1.75;1.00;;;;;31.18;28.63;101287.13;5121594;27;45404;-70
2023/07/19 12:02:36;;;;;;;;;3.50;2.00;;;;;31.15;28.45;101281.94;5137168;27;45620;-69
2023/07/19 12:05:04;;;;;;;;;1.00;1.00;;;;;31.18;28.92;101276.91;5121676;27;45223;-70
2023/07/19 12:07:30;;;;;;;;;1.25;1.25;;;;;31.20;28.70;101276.72;5121878;27;45340;-69
2023/07/19 12:09:55;;;;;;;;;3.50;2.25;;;;;31.16;28.33;101281.75;5121379;27;45279;-68
2023/07/19 12:12:21;;;;;;;;;2.75;2.75;;;;;31.13;28.81;101279.38;5121291;27;51738;-67
2023/07/19 12:14:46;;;;;;;;;1.00;1.00;;;;;31.43;28.79;101288.53;5120294;27;45246;-69
2023/07/19 12:17:11;;;;;;;;;3.00;1.50;;;;;31.32;28.82;101279.81;5121252;27;45176;-69
2023/07/19 12:19:37;;;;;;;;;2.50;1.50;;;;;31.37;28.76;101285.66;5121236;27;45437;-68
2023/07/19 12:22:04;;;;;;;;;2.00;2.00;;;;;31.25;28.41;101279.75;5120979;27;59466;-68
2023/07/19 12:24:30;;;;;;;;;1.00;1.00;;;;;31.21;28.94;101272.88;5119946;27;45263;-68
2023/07/19 12:26:55;;;;;;;;;1.00;1.00;;;;;31.25;29.00;101270.56;5116800;27;45228;-68
2023/07/19 12:29:20;;;;;;;;;2.50;2.50;;;;;31.19;28.75;101274.97;5121276;27;45208;-67
2023/07/19 12:31:46;;;;;;;;;3.00;2.25;;;;;31.18;29.00;101274.13;5121598;27;45229;-68
2023/07/19 12:34:11;;;;;;;;;1.75;1.75;;;;;31.30;28.45;101274.50;5120897;27;45284;-68
2023/07/19 12:36:36;;;;;;;;;1.75;1.75;;;;;31.37;28.52;101257.97;5121559;27;45352;-68
2023/07/19 12:39:02;;;;;;;;;4.00;2.00;;;;;31.48;28.33;101262.97;5121066;27;45345;-67
2023/07/19 12:41:28;;;;;;;;;1.00;1.00;;;;;31.57;27.87;101264.59;5121142;27;46159;-68
2023/07/19 12:43:54;;;;;;;;;1.75;1.00;;;;;31.53;27.78;101272.47;5121057;27;45276;-67
2023/07/19 12:46:21;;;;;;;;;1.00;1.00;;;;;31.51;28.01;101268.16;5119732;27;45258;-67
2023/07/19 12:48:48;;;;;;;;;1.75;1.75;;;;;31.46;28.30;101259.56;5120789;27;45510;-68
2023/07/19 12:51:13;;;;;;;;;3.50;2.00;;;;;31.49;28.02;101253.63;5120764;27;46243;-68
2023/07/19 12:53:39;;;;;;;;;0.00;0.00;;;;;31.67;28.45;101250.47;5120763;27;45578;-66
2023/07/19 12:56:04;;;;;;;;;1.75;1.75;;;;;31.69;28.21;101254.75;5121037;27;45239;-67
2023/07/19 12:58:30;;;;;;;;;1.25;1.25;;;;;31.77;28.06;101248.22;5120948;27;45260;-68
2023/07/19 13:00:55;;;;;;;;;1.25;1.25;;;;;31.78;27.30;101245.25;5121139;27;45269;-67
2023/07/19 13:03:21;;;;;;;;;2.75;2.75;;;;;31.72;27.36;101254.38;5120581;27;45412;-67
2023/07/19 13:05:48;;;;;;;;;3.50;3.50;;;;;31.70;27.32;101236.22;5120820;27;45518;-66
2023/07/19 13:08:13;;;;;;;;;4.00;4.00;;;;;31.81;27.39;101246.81;5120670;27;45332;-67
2023/07/19 13:10:39;;;;;;;;;4.00;3.75;;;;;31.80;27.45;101248.72;5118998;27;47384;-68
2023/07/19 13:13:04;;;;;;;;;3.75;3.25;;;;;31.82;27.64;101251.25;5119327;27;45288;-68
2023/07/19 13:15:30;;;;;;;;;3.25;3.25;;;;;31.80;28.16;101251.47;5120703;27;45416;-68
2023/07/19 13:17:55;;;;;;;;;4.00;4.00;;;;;31.80;27.49;101253.41;5120362;27;45330;-68
2023/07/19 13:20:20;;;;;;;;;4.00;4.00;;;;;31.76;27.36;101249.28;5120285;27;48359;-68
2023/07/19 13:22:46;;;;;;;;;3.75;3.75;;;;;31.79;27.98;101240.59;5119277;27;45438;-68
2023/07/19 13:25:11;;;;;;;;;6.25;2.00;;;;;31.82;28.23;101224.38;5120252;27;45490;-69
2023/07/19 13:27:37;;;;;;;;;0.50;0.50;;;;;31.86;27.64;101231.28;5116290;27;45285;-68
2023/07/19 13:30:06;;;;;;;;;3.00;3.00;;;;;31.98;27.27;101242.72;5119736;27;54238;-67
2023/07/19 13:32:32;;;;;;;;;2.25;2.25;;;;;31.98;27.76;101233.53;5119537;27;45432;-68
2023/07/19 13:34:57;;;;;;;;;2.50;2.25;;;;;31.91;27.45;101237.06;5120577;27;45425;-68
2023/07/19 13:37:23;;;;;;;;;3.25;2.25;;;;;32.00;27.30;101240.56;5120423;27;45294;-67
2023/07/19 13:39:48;;;;;;;;;1.25;1.25;;;;;31.95;27.26;101240.31;5123417;27;45734;-67
2023/07/19 13:42:14;;;;;;;;;4.50;1.50;;;;;31.89;27.62;101233.66;5123990;27;45219;-68
2023/07/19 13:44:39;;;;;;;;;1.50;1.50;;;;;31.93;27.74;101229.41;5124042;27;45366;-68
2023/07/19 13:47:05;;;;;;;;;1.50;1.50;;;;;32.00;27.06;101239.72;5123662;27;45246;-68
2023/07/19 13:49:30;;;;;;;;;1.75;1.75;;;;;32.15;27.33;101232.22;5122862;27;45390;-71
2023/07/19 13:51:55;;;;;;;;;0.00;0.00;;;;;32.19;26.84;101228.00;5123796;27;45363;-68
2023/07/19 13:54:20;;;;;;;;;1.50;1.50;;;;;32.18;26.76;101231.81;5139869;27;45775;-67
2023/07/19 13:56:46;;;;;;;;;2.75;1.50;;;;;32.34;26.92;101231.53;5123567;27;52188;-68
2023/07/19 13:59:11;;;;;;;;;2.50;2.50;;;;;32.31;26.89;101231.94;5123195;27;53667;-67
2023/07/19 14:01:37;;;;;;;;;3.75;3.75;;;;;32.33;26.83;101243.69;5123797;27;45316;-68
2023/07/19 14:04:02;;;;;;;;;4.00;3.00;;;;;32.39;26.80;101237.34;5123235;27;45228;-68
2023/07/19 14:06:27;;;;;;;;;1.50;1.50;;;;;32.13;26.54;101220.44;5122330;27;45276;-68
2023/07/19 14:08:53;;;;;;;;;2.50;1.75;;;;;32.27;26.35;101245.34;5122970;27;45211;-68
2023/07/19 14:11:18;;;;;;;;;1.25;1.25;;;;;32.21;26.41;101240.63;5123321;27;52031;-67
2023/07/19 14:13:48;;;;;;;;;1.00;1.00;;;;;32.18;26.35;101232.69;5123584;27;45409;-68
2023/07/19 14:16:16;;;;;;;;;1.00;1.00;;;;;32.27;27.09;101230.63;5139304;27;45837;-67
2023/07/19 14:18:41;;;;;;;;;3.00;1.00;;;;;32.37;26.54;101235.81;5122706;27;45282;-68
2023/07/19 14:21:06;;;;;;;;;2.00;2.00;;;;;32.47;26.47;101239.13;5123202;27;45340;-67
2023/07/19 14:23:32;;;;;;;;;1.75;1.75;;;;;32.39;26.53;101226.25;5121847;27;45456;-69
2023/07/19 14:25:57;;;;;;;;;1.00;1.00;;;;;32.36;26.65;101217.47;5120128;27;54974;-68
2023/07/19 14:28:22;;;;;;;;;0.75;0.75;;;;;32.44;26.51;101231.19;5120701;27;54796;-68
2023/07/19 14:30:48;;;;;;;;;1.50;1.50;;;;;32.44;26.66;101223.72;5123222;27;45285;-67
2023/07/19 14:33:13;;;;;;;;;2.00;0.75;;;;;32.43;26.67;101232.25;5121653;27;45204;-68
2023/07/19 14:35:39;;;;;;;;;1.50;1.50;;;;;32.24;26.98;101223.53;5123164;27;45252;-67
2023/07/19 14:38:04;;;;;;;;;0.75;0.75;;;;;32.21;26.43;101226.75;5122942;27;46210;-68
2023/07/19 14:40:30;;;;;;;;;2.00;1.25;;;;;32.23;26.51;101223.78;5123161;27;45250;-69
2023/07/19 14:42:55;;;;;;;;;1.75;0.75;;;;;32.19;27.27;101228.84;5123000;27;45322;-68
2023/07/19 14:45:20;;;;;;;;;1.00;1.00;;;;;32.24;27.17;101226.31;5122696;27;55950;-68
2023/07/19 14:47:46;;;;;;;;;1.00;1.00;;;;;32.33;26.71;101209.56;5122559;27;46088;-69
2023/07/19 14:50:11;;;;;;;;;1.50;1.50;;;;;32.37;27.28;101217.25;5122525;27;45245;-68
2023/07/19 14:52:37;;;;;;;;;0.75;0.75;;;;;32.33;27.59;101214.03;5122799;27;45265;-68
2023/07/19 14:55:03;;;;;;;;;1.50;1.25;;;;;32.49;27.35;101221.22;5121503;27;46242;-68
2023/07/19 14:57:29;;;;;;;;;2.25;2.25;;;;;32.59;27.13;101216.13;5122514;27;45545;-68
2023/07/19 14:59:55;;;;;;;;;0.75;0.75;;;;;32.59;26.59;101213.38;5122654;27;45346;-69
2023/07/19 15:02:21;;;;;;;;;1.00;1.00;;;;;32.74;26.67;101227.19;5122458;27;45291;-67
2023/07/19 15:04:47;;;;;;;;;1.00;1.00;;;;;32.75;27.15;101219.72;5122424;27;45510;-67
2023/07/19 15:07:12;;;;;;;;;1.00;1.00;;;;;32.92;26.75;101219.16;5121186;27;47318;-69
2023/07/19 15:09:38;;;;;;;;;1.00;1.00;;;;;33.05;27.29;101235.06;5122427;27;48703;-68
2023/07/19 15:12:03;;;;;;;;;0.75;0.75;;;;;33.20;27.09;101229.34;5122658;27;45221;-69
2023/07/19 15:14:28;;;;;;;;;1.00;1.00;;;;;33.18;26.75;101223.13;5122499;27;45235;-67
2023/07/19 15:16:54;;;;;;;;;3.00;1.00;;;;;33.13;26.46;101220.13;5121920;27;50462;-68
2023/07/19 15:19:19;;;;;;;;;1.75;1.75;;;;;33.19;26.44;101227.63;5121005;27;45755;-68
2023/07/19 15:21:44;;;;;;;;;2.25;1.25;;;;;33.16;26.96;101220.59;5122371;27;45313;-68
2023/07/19 15:24:10;;;;;;;;;0.25;0.25;;;;;33.23;27.03;101215.94;5122181;27;49586;-68
2023/07/19 15:26:35;;;;;;;;;3.50;1.50;;;;;33.25;27.01;101219.38;5116562;27;45287;-68
2023/07/19 15:29:01;;;;;;;;;1.00;1.00;;;;;33.22;27.44;101199.47;5122384;27;45264;-67
2023/07/19 15:31:27;;;;;;;;;1.00;1.00;;;;;33.25;27.44;101213.81;5122462;27;45237;-67
2023/07/19 15:33:52;;;;;;;;;1.00;1.00;;;;;33.31;27.09;101203.78;5121880;27;45650;-70
2023/07/19 15:36:17;;;;;;;;;0.50;0.50;;;;;33.31;27.06;101196.31;5122113;27;45586;-68
2023/07/19 15:38:46;;;;;;;;;0.25;0.25;;;;;33.37;26.65;101203.81;5122298;27;45511;-69
2023/07/19 15:41:12;;;;;;;;;1.00;1.00;;;;;33.39;26.96;101204.47;5122206;27;45371;-68
2023/07/19 15:43:38;;;;;;;;;1.75;1.75;;;;;33.46;26.54;101204.47;5122135;27;45227;-67
2023/07/19 15:46:03;;;;;;;;;1.75;1.75;;;;;33.48;26.67;101207.06;5121761;27;45250;-68
2023/07/19 15:48:29;;;;;;;;;1.00;1.00;;;;;33.41;26.97;101202.34;5121598;27;45332;-68
2023/07/19 15:50:55;;;;;;;;;1.25;0.75;;;;;33.41;26.53;101202.34;5122110;27;45347;-67
2023/07/19 15:53:20;;;;;;;;;0.25;0.25;;;;;33.55;26.88;101196.81;5121859;27;45261;-67
2023/07/19 15:55:46;;;;;;;;;0.75;0.75;;;;;33.49;26.79;101197.66;5121656;27;46005;-67
2023/07/19 15:58:12;;;;;;;;;0.75;0.75;;;;;33.43;27.19;101200.19;5121578;27;45252;-68
2023/07/19 16:00:37;;;;;;;;;1.25;1.25;;;;;33.37;26.99;101201.03;5120893;27;45749;-68
2023/07/19 16:03:03;;;;;;;;;4.50;0.75;;;;;33.47;27.05;101199.78;5119730;27;46860;-68
2023/07/19 16:05:28;;;;;;;;;0.75;0.75;;;;;33.40;27.12;101185.88;5121509;27;46210;-67
2023/07/19 16:07:54;;;;;;;;;1.75;0.75;;;;;33.53;27.14;101183.09;5121742;27;45443;-67
2023/07/19 16:10:19;;;;;;;;;0.50;0.50;;;;;33.51;27.12;101184.41;5121809;27;45263;-67
2023/07/19 16:12:44;;;;;;;;;2.75;1.25;;;;;33.54;26.71;101186.75;5121771;27;45301;-68
2023/07/19 16:15:10;;;;;;;;;1.50;1.50;;;;;33.50;26.87;101178.00;5121227;27;45992;-68
2023/07/19 16:17:37;;;;;;;;;2.25;2.25;;;;;33.71;26.68;101191.72;5121420;27;45391;-67
2023/07/19 16:20:06;;;;;;;;;2.00;2.00;;;;;33.58;26.73;101174.16;5121414;27;45241;-67
2023/07/19 16:22:32;;;;;;;;;0.50;0.50;;;;;33.70;26.16;101180.78;5121559;27;45213;-68
2023/07/19 16:24:57;;;;;;;;;1.00;1.00;;;;;33.87;26.35;101179.34;5120916;27;46480;-68
2023/07/19 16:27:22;;;;;;;;;2.00;2.00;;;;;34.02;25.97;101185.59;5117511;27;45451;-68
2023/07/19 16:29:48;;;;;;;;;2.00;2.00;;;;;34.06;26.18;101174.88;5121484;27;45362;-67
2023/07/19 16:32:13;;;;;;;;;2.75;1.00;;;;;34.15;25.78;101185.59;5119091;27;50609;-67
2023/07/19 16:34:38;;;;;;;;;4.75;1.25;;;;;34.17;25.99;101190.94;5120865;27;53931;-67
2023/07/19 16:37:04;;;;;;;;;2.00;2.00;;;;;33.95;25.91;101183.84;5119892;27;45428;-66
2023/07/19 16:39:30;;;;;;;;;1.00;1.00;;;;;34.00;25.98;101184.09;5121331;27;45683;-67
2023/07/19 16:41:56;;;;;;;;;1.00;1.00;;;;;33.90;26.04;101180.88;5121135;27;45571;-66
2023/07/19 16:44:21;;;;;;;;;1.00;1.00;;;;;33.76;26.18;101175.28;5120569;27;45312;-67
2023/07/19 16:46:47;;;;;;;;;2.00;1.50;;;;;33.56;27.03;101167.94;5120613;27;45479;-67
2023/07/19 16:49:12;;;;;;;;;0.75;0.75;;;;;33.60;26.49;101167.28;5119895;27;45340;-67